sensor_id;sensor_type;location;lat;lon;timestamp;P1;durP1;ratioP1;P2;durP2;ratioP2
13102;SDS011;52970;46.752;17.108;2022-12-18T00:00:20;48.57;;;26.63;;
13102;SDS011;52970;46.752;17.108;2022-12-18T00:02:45;42.70;;;24.37;;
13102;SDS011;52970;46.752;17.108;2022-12-18T00:05:11;47.17;;;26.17;;
13102;SDS011;52970;46.752;17.108;2022-12-18T00:07:36;45.43;;;25.77;;
13102;SDS011;52970;46.752;17.108;2022-12-18T00:10:02;44.63;;;24.33;;
13102;SDS011;52970;46.752;17.108;2022-12-18T00:12:28;43.30;;;23.63;;
13102;SDS011;52970;46.752;17.108;2022-12-18T00:14:53;41.53;;;25.07;;
13102;SDS011;52970;46.752;17.108;2022-12-18T00:17:18;42.80;;;23.57;;
13102;SDS011;52970;46.752;17.108;2022-12-18T00:19:43;43.77;;;25.03;;
13102;SDS011;52970;46.752;17.108;2022-12-18T00:22:09;40.20;;;22.07;;
13102;SDS011;52970;46.752;17.108;2022-12-18T00:24:35;39.13;;;22.67;;
13102;SDS011;52970;46.752;17.108;2022-12-18T00:27:00;38.73;;;21.33;;
13102;SDS011;52970;46.752;17.108;2022-12-18T00:29:26;33.87;;;21.87;;
13102;SDS011;52970;46.752;17.108;2022-12-18T00:31:51;38.47;;;22.53;;
13102;SDS011;52970;46.752;17.108;2022-12-18T00:34:16;37.67;;;22.10;;
13102;SDS011;52970;46.752;17.108;2022-12-18T00:36:41;32.70;;;20.03;;
13102;SDS011;52970;46.752;17.108;2022-12-18T00:39:07;32.80;;;19.17;;
13102;SDS011;52970;46.752;17.108;2022-12-18T00:41:32;32.17;;;18.33;;
13102;SDS011;52970;46.752;17.108;2022-12-18T00:44:17;29.57;;;17.83;;
13102;SDS011;52970;46.752;17.108;2022-12-18T00:46:42;32.87;;;18.53;;
13102;SDS011;52970;46.752;17.108;2022-12-18T00:49:08;36.33;;;20.67;;
13102;SDS011;52970;46.752;17.108;2022-12-18T00:51:33;29.93;;;18.60;;
13102;SDS011;52970;46.752;17.108;2022-12-18T00:53:59;32.07;;;19.20;;
13102;SDS011;52970;46.752;17.108;2022-12-18T00:56:24;32.00;;;19.80;;
13102;SDS011;52970;46.752;17.108;2022-12-18T00:58:49;31.07;;;17.53;;
13102;SDS011;52970;46.752;17.108;2022-12-18T01:01:14;30.63;;;18.37;;
13102;SDS011;52970;46.752;17.108;2022-12-18T01:03:40;26.23;;;16.67;;
13102;SDS011;52970;46.752;17.108;2022-12-18T01:06:09;28.07;;;17.33;;
13102;SDS011;52970;46.752;17.108;2022-12-18T01:08:34;29.13;;;16.90;;
13102;SDS011;52970;46.752;17.108;2022-12-18T01:11:00;29.87;;;18.37;;
13102;SDS011;52970;46.752;17.108;2022-12-18T01:13:25;43.17;;;25.00;;
13102;SDS011;52970;46.752;17.108;2022-12-18T01:15:50;41.33;;;21.77;;
13102;SDS011;52970;46.752;17.108;2022-12-18T01:18:16;37.83;;;20.87;;
13102;SDS011;52970;46.752;17.108;2022-12-18T01:20:41;41.33;;;23.10;;
13102;SDS011;52970;46.752;17.108;2022-12-18T01:23:06;40.90;;;22.70;;
13102;SDS011;52970;46.752;17.108;2022-12-18T01:25:32;42.90;;;24.37;;
13102;SDS011;52970;46.752;17.108;2022-12-18T01:27:58;38.90;;;22.40;;
13102;SDS011;52970;46.752;17.108;2022-12-18T01:30:23;42.33;;;23.67;;
13102;SDS011;52970;46.752;17.108;2022-12-18T01:32:48;41.40;;;23.17;;
13102;SDS011;52970;46.752;17.108;2022-12-18T01:35:14;39.27;;;24.03;;
13102;SDS011;52970;46.752;17.108;2022-12-18T01:37:39;43.03;;;23.53;;
13102;SDS011;52970;46.752;17.108;2022-12-18T01:40:04;43.17;;;24.67;;
13102;SDS011;52970;46.752;17.108;2022-12-18T01:42:30;41.13;;;23.37;;
13102;SDS011;52970;46.752;17.108;2022-12-18T01:49:46;42.57;;;24.33;;
13102;SDS011;52970;46.752;17.108;2022-12-18T01:52:11;45.23;;;26.10;;
13102;SDS011;52970;46.752;17.108;2022-12-18T01:54:36;41.60;;;23.73;;
13102;SDS011;52970;46.752;17.108;2022-12-18T01:57:02;43.30;;;25.23;;
13102;SDS011;52970;46.752;17.108;2022-12-18T01:59:27;44.50;;;26.00;;
13102;SDS011;52970;46.752;17.108;2022-12-18T02:01:53;42.47;;;24.93;;
13102;SDS011;52970;46.752;17.108;2022-12-18T02:04:25;43.97;;;24.80;;
13102;SDS011;52970;46.752;17.108;2022-12-18T02:09:28;46.00;;;25.40;;
13102;SDS011;52970;46.752;17.108;2022-12-18T02:16:59;47.10;;;26.80;;
13102;SDS011;52970;46.752;17.108;2022-12-18T02:19:47;45.57;;;26.07;;
13102;SDS011;52970;46.752;17.108;2022-12-18T02:25:01;47.13;;;26.80;;
13102;SDS011;52970;46.752;17.108;2022-12-18T02:27:28;48.27;;;26.47;;
13102;SDS011;52970;46.752;17.108;2022-12-18T02:29:55;43.40;;;24.80;;
13102;SDS011;52970;46.752;17.108;2022-12-18T02:32:25;44.40;;;24.43;;
13102;SDS011;52970;46.752;17.108;2022-12-18T02:34:52;44.40;;;25.13;;
13102;SDS011;52970;46.752;17.108;2022-12-18T02:37:19;43.63;;;23.80;;
13102;SDS011;52970;46.752;17.108;2022-12-18T02:39:46;41.80;;;23.93;;
13102;SDS011;52970;46.752;17.108;2022-12-18T02:42:12;40.60;;;22.87;;
13102;SDS011;52970;46.752;17.108;2022-12-18T02:44:47;42.20;;;23.70;;
13102;SDS011;52970;46.752;17.108;2022-12-18T02:47:13;42.77;;;23.77;;
13102;SDS011;52970;46.752;17.108;2022-12-18T02:54:47;38.10;;;22.67;;
13102;SDS011;52970;46.752;17.108;2022-12-18T02:57:23;44.97;;;24.13;;
13102;SDS011;52970;46.752;17.108;2022-12-18T03:00:06;43.47;;;24.60;;
13102;SDS011;52970;46.752;17.108;2022-12-18T03:02:41;37.90;;;22.37;;
13102;SDS011;52970;46.752;17.108;2022-12-18T03:05:13;43.27;;;22.73;;
13102;SDS011;52970;46.752;17.108;2022-12-18T03:07:53;37.13;;;21.40;;
13102;SDS011;52970;46.752;17.108;2022-12-18T03:10:21;38.03;;;21.80;;
13102;SDS011;52970;46.752;17.108;2022-12-18T03:12:51;40.17;;;21.47;;
13102;SDS011;52970;46.752;17.108;2022-12-18T03:15:28;39.83;;;22.13;;
13102;SDS011;52970;46.752;17.108;2022-12-18T03:17:57;40.23;;;22.60;;
13102;SDS011;52970;46.752;17.108;2022-12-18T03:20:22;38.00;;;21.37;;
13102;SDS011;52970;46.752;17.108;2022-12-18T03:22:51;39.70;;;22.47;;
13102;SDS011;52970;46.752;17.108;2022-12-18T03:25:18;39.47;;;21.47;;
13102;SDS011;52970;46.752;17.108;2022-12-18T03:27:46;37.93;;;22.03;;
13102;SDS011;52970;46.752;17.108;2022-12-18T03:30:13;38.33;;;22.47;;
13102;SDS011;52970;46.752;17.108;2022-12-18T03:32:49;36.67;;;21.00;;
13102;SDS011;52970;46.752;17.108;2022-12-18T03:35:16;39.93;;;20.93;;
13102;SDS011;52970;46.752;17.108;2022-12-18T03:37:43;39.27;;;19.93;;
13102;SDS011;52970;46.752;17.108;2022-12-18T03:40:09;36.87;;;20.17;;
13102;SDS011;52970;46.752;17.108;2022-12-18T03:42:54;32.77;;;19.47;;
13102;SDS011;52970;46.752;17.108;2022-12-18T03:45:26;38.67;;;20.10;;
13102;SDS011;52970;46.752;17.108;2022-12-18T03:47:59;34.83;;;19.63;;
13102;SDS011;52970;46.752;17.108;2022-12-18T03:53:23;38.37;;;21.00;;
13102;SDS011;52970;46.752;17.108;2022-12-18T03:55:51;36.10;;;20.20;;
13102;SDS011;52970;46.752;17.108;2022-12-18T03:58:17;33.43;;;20.30;;
13102;SDS011;52970;46.752;17.108;2022-12-18T04:00:43;35.57;;;20.20;;
13102;SDS011;52970;46.752;17.108;2022-12-18T04:03:09;38.63;;;20.43;;
13102;SDS011;52970;46.752;17.108;2022-12-18T04:05:35;35.90;;;20.53;;
13102;SDS011;52970;46.752;17.108;2022-12-18T04:08:02;30.33;;;19.30;;
13102;SDS011;52970;46.752;17.108;2022-12-18T04:10:27;32.63;;;18.93;;
13102;SDS011;52970;46.752;17.108;2022-12-18T04:12:55;37.43;;;21.17;;
13102;SDS011;52970;46.752;17.108;2022-12-18T04:15:20;30.53;;;17.97;;
13102;SDS011;52970;46.752;17.108;2022-12-18T04:17:49;34.00;;;19.83;;
13102;SDS011;52970;46.752;17.108;2022-12-18T04:20:14;33.23;;;19.20;;
13102;SDS011;52970;46.752;17.108;2022-12-18T04:22:39;34.70;;;19.60;;
13102;SDS011;52970;46.752;17.108;2022-12-18T04:25:05;33.27;;;17.30;;
13102;SDS011;52970;46.752;17.108;2022-12-18T04:27:30;30.03;;;17.93;;
13102;SDS011;52970;46.752;17.108;2022-12-18T04:29:55;29.17;;;17.17;;
13102;SDS011;52970;46.752;17.108;2022-12-18T04:32:21;29.47;;;18.17;;
13102;SDS011;52970;46.752;17.108;2022-12-18T04:34:46;30.17;;;17.80;;
13102;SDS011;52970;46.752;17.108;2022-12-18T04:37:11;29.80;;;16.77;;
13102;SDS011;52970;46.752;17.108;2022-12-18T04:39:37;27.83;;;16.90;;
13102;SDS011;52970;46.752;17.108;2022-12-18T04:42:02;31.97;;;17.57;;
13102;SDS011;52970;46.752;17.108;2022-12-18T04:44:27;32.50;;;19.53;;
13102;SDS011;52970;46.752;17.108;2022-12-18T04:46:52;32.73;;;18.63;;
13102;SDS011;52970;46.752;17.108;2022-12-18T04:49:18;35.67;;;19.37;;
13102;SDS011;52970;46.752;17.108;2022-12-18T04:51:43;32.83;;;18.90;;
13102;SDS011;52970;46.752;17.108;2022-12-18T04:54:08;37.33;;;20.67;;
13102;SDS011;52970;46.752;17.108;2022-12-18T04:56:33;33.10;;;20.13;;
13102;SDS011;52970;46.752;17.108;2022-12-18T04:58:59;36.57;;;20.57;;
13102;SDS011;52970;46.752;17.108;2022-12-18T05:01:24;37.57;;;20.60;;
13102;SDS011;52970;46.752;17.108;2022-12-18T05:03:50;38.80;;;20.77;;
13102;SDS011;52970;46.752;17.108;2022-12-18T05:06:15;36.13;;;20.90;;
13102;SDS011;52970;46.752;17.108;2022-12-18T05:08:41;35.07;;;20.27;;
13102;SDS011;52970;46.752;17.108;2022-12-18T05:11:10;35.93;;;20.93;;
13102;SDS011;52970;46.752;17.108;2022-12-18T05:13:36;33.80;;;19.17;;
13102;SDS011;52970;46.752;17.108;2022-12-18T05:16:03;34.67;;;19.03;;
13102;SDS011;52970;46.752;17.108;2022-12-18T05:18:28;33.83;;;19.70;;
13102;SDS011;52970;46.752;17.108;2022-12-18T05:20:54;34.33;;;19.27;;
13102;SDS011;52970;46.752;17.108;2022-12-18T05:23:19;33.17;;;20.00;;
13102;SDS011;52970;46.752;17.108;2022-12-18T05:25:52;30.80;;;18.10;;
13102;SDS011;52970;46.752;17.108;2022-12-18T05:28:18;34.07;;;18.67;;
13102;SDS011;52970;46.752;17.108;2022-12-18T05:30:47;30.27;;;19.20;;
13102;SDS011;52970;46.752;17.108;2022-12-18T05:33:13;33.80;;;19.47;;
13102;SDS011;52970;46.752;17.108;2022-12-18T05:35:38;31.63;;;18.87;;
13102;SDS011;52970;46.752;17.108;2022-12-18T05:38:03;31.63;;;18.80;;
13102;SDS011;52970;46.752;17.108;2022-12-18T05:40:29;34.57;;;19.60;;
13102;SDS011;52970;46.752;17.108;2022-12-18T05:42:54;29.00;;;17.53;;
13102;SDS011;52970;46.752;17.108;2022-12-18T05:45:19;31.43;;;17.93;;
13102;SDS011;52970;46.752;17.108;2022-12-18T05:47:45;29.80;;;17.33;;
13102;SDS011;52970;46.752;17.108;2022-12-18T05:50:10;35.00;;;19.57;;
13102;SDS011;52970;46.752;17.108;2022-12-18T05:52:36;32.93;;;18.83;;
13102;SDS011;52970;46.752;17.108;2022-12-18T05:55:01;36.23;;;19.37;;
13102;SDS011;52970;46.752;17.108;2022-12-18T05:57:26;33.77;;;18.97;;
13102;SDS011;52970;46.752;17.108;2022-12-18T05:59:51;30.87;;;18.43;;
13102;SDS011;52970;46.752;17.108;2022-12-18T06:02:16;33.23;;;18.87;;
13102;SDS011;52970;46.752;17.108;2022-12-18T06:04:42;29.50;;;17.70;;
13102;SDS011;52970;46.752;17.108;2022-12-18T06:07:08;31.97;;;18.30;;
13102;SDS011;52970;46.752;17.108;2022-12-18T06:09:33;33.03;;;18.57;;
13102;SDS011;52970;46.752;17.108;2022-12-18T06:11:58;34.67;;;20.07;;
13102;SDS011;52970;46.752;17.108;2022-12-18T06:14:24;32.60;;;19.97;;
13102;SDS011;52970;46.752;17.108;2022-12-18T06:16:52;36.30;;;20.10;;
13102;SDS011;52970;46.752;17.108;2022-12-18T06:19:17;45.07;;;23.80;;
13102;SDS011;52970;46.752;17.108;2022-12-18T06:21:43;41.03;;;22.60;;
13102;SDS011;52970;46.752;17.108;2022-12-18T06:24:08;45.13;;;24.90;;
13102;SDS011;52970;46.752;17.108;2022-12-18T06:26:33;42.93;;;23.87;;
13102;SDS011;52970;46.752;17.108;2022-12-18T06:28:59;42.43;;;23.07;;
13102;SDS011;52970;46.752;17.108;2022-12-18T06:31:24;41.90;;;22.23;;
13102;SDS011;52970;46.752;17.108;2022-12-18T06:33:50;39.57;;;22.00;;
13102;SDS011;52970;46.752;17.108;2022-12-18T06:36:15;37.57;;;22.00;;
13102;SDS011;52970;46.752;17.108;2022-12-18T06:38:42;39.77;;;20.73;;
13102;SDS011;52970;46.752;17.108;2022-12-18T06:41:08;33.77;;;19.43;;
13102;SDS011;52970;46.752;17.108;2022-12-18T06:43:34;31.47;;;18.90;;
13102;SDS011;52970;46.752;17.108;2022-12-18T06:45:59;35.10;;;19.90;;
13102;SDS011;52970;46.752;17.108;2022-12-18T06:48:25;33.40;;;19.83;;
13102;SDS011;52970;46.752;17.108;2022-12-18T06:50:50;36.07;;;19.13;;
13102;SDS011;52970;46.752;17.108;2022-12-18T06:53:15;33.47;;;18.97;;
13102;SDS011;52970;46.752;17.108;2022-12-18T06:55:40;35.90;;;19.23;;
13102;SDS011;52970;46.752;17.108;2022-12-18T06:58:06;36.87;;;19.97;;
13102;SDS011;52970;46.752;17.108;2022-12-18T07:00:31;36.10;;;20.70;;
13102;SDS011;52970;46.752;17.108;2022-12-18T07:02:56;33.87;;;20.03;;
13102;SDS011;52970;46.752;17.108;2022-12-18T07:05:22;35.33;;;19.43;;
13102;SDS011;52970;46.752;17.108;2022-12-18T07:07:47;34.40;;;19.13;;
13102;SDS011;52970;46.752;17.108;2022-12-18T07:10:13;32.57;;;18.30;;
13102;SDS011;52970;46.752;17.108;2022-12-18T07:12:38;29.77;;;17.57;;
13102;SDS011;52970;46.752;17.108;2022-12-18T07:15:03;32.40;;;17.90;;
13102;SDS011;52970;46.752;17.108;2022-12-18T07:17:29;32.80;;;18.83;;
13102;SDS011;52970;46.752;17.108;2022-12-18T07:19:54;34.13;;;17.63;;
13102;SDS011;52970;46.752;17.108;2022-12-18T07:22:20;37.27;;;19.90;;
13102;SDS011;52970;46.752;17.108;2022-12-18T07:24:45;39.53;;;21.50;;
13102;SDS011;52970;46.752;17.108;2022-12-18T07:27:10;38.27;;;21.50;;
13102;SDS011;52970;46.752;17.108;2022-12-18T07:29:35;34.80;;;21.13;;
13102;SDS011;52970;46.752;17.108;2022-12-18T07:32:01;40.57;;;22.37;;
13102;SDS011;52970;46.752;17.108;2022-12-18T07:34:26;38.47;;;22.17;;
13102;SDS011;52970;46.752;17.108;2022-12-18T07:36:51;37.83;;;22.30;;
13102;SDS011;52970;46.752;17.108;2022-12-18T07:39:16;38.57;;;22.23;;
13102;SDS011;52970;46.752;17.108;2022-12-18T07:41:42;40.90;;;21.47;;
13102;SDS011;52970;46.752;17.108;2022-12-18T07:44:11;39.60;;;21.90;;
13102;SDS011;52970;46.752;17.108;2022-12-18T07:46:36;38.70;;;20.77;;
13102;SDS011;52970;46.752;17.108;2022-12-18T07:49:01;37.93;;;22.80;;
13102;SDS011;52970;46.752;17.108;2022-12-18T07:51:26;40.30;;;22.30;;
13102;SDS011;52970;46.752;17.108;2022-12-18T07:53:52;39.53;;;22.93;;
13102;SDS011;52970;46.752;17.108;2022-12-18T07:56:17;43.37;;;23.53;;
13102;SDS011;52970;46.752;17.108;2022-12-18T07:58:42;40.97;;;22.27;;
13102;SDS011;52970;46.752;17.108;2022-12-18T08:01:10;43.13;;;22.20;;
13102;SDS011;52970;46.752;17.108;2022-12-18T08:03:37;41.17;;;23.53;;
13102;SDS011;52970;46.752;17.108;2022-12-18T08:06:03;43.33;;;23.20;;
13102;SDS011;52970;46.752;17.108;2022-12-18T08:08:29;42.57;;;24.00;;
13102;SDS011;52970;46.752;17.108;2022-12-18T08:10:55;40.90;;;22.80;;
13102;SDS011;52970;46.752;17.108;2022-12-18T08:13:20;40.70;;;24.10;;
13102;SDS011;52970;46.752;17.108;2022-12-18T08:15:46;43.17;;;24.53;;
13102;SDS011;52970;46.752;17.108;2022-12-18T08:18:11;39.47;;;23.57;;
13102;SDS011;52970;46.752;17.108;2022-12-18T08:20:36;40.17;;;22.77;;
13102;SDS011;52970;46.752;17.108;2022-12-18T08:23:02;42.60;;;24.00;;
13102;SDS011;52970;46.752;17.108;2022-12-18T08:25:27;37.20;;;21.93;;
13102;SDS011;52970;46.752;17.108;2022-12-18T08:27:52;41.10;;;24.53;;
13102;SDS011;52970;46.752;17.108;2022-12-18T08:30:18;40.60;;;23.30;;
13102;SDS011;52970;46.752;17.108;2022-12-18T08:32:43;44.40;;;25.93;;
13102;SDS011;52970;46.752;17.108;2022-12-18T08:35:08;65.23;;;32.70;;
13102;SDS011;52970;46.752;17.108;2022-12-18T08:37:34;62.87;;;35.33;;
13102;SDS011;52970;46.752;17.108;2022-12-18T08:39:59;43.97;;;23.90;;
13102;SDS011;52970;46.752;17.108;2022-12-18T08:42:24;49.13;;;26.27;;
13102;SDS011;52970;46.752;17.108;2022-12-18T08:45:08;41.90;;;24.53;;
13102;SDS011;52970;46.752;17.108;2022-12-18T08:47:34;37.53;;;21.43;;
13102;SDS011;52970;46.752;17.108;2022-12-18T08:49:59;41.20;;;23.07;;
13102;SDS011;52970;46.752;17.108;2022-12-18T08:52:24;36.13;;;20.77;;
13102;SDS011;52970;46.752;17.108;2022-12-18T08:54:49;36.50;;;21.00;;
13102;SDS011;52970;46.752;17.108;2022-12-18T08:57:15;37.47;;;22.37;;
13102;SDS011;52970;46.752;17.108;2022-12-18T08:59:41;38.70;;;22.77;;
13102;SDS011;52970;46.752;17.108;2022-12-18T09:02:07;36.43;;;21.07;;
13102;SDS011;52970;46.752;17.108;2022-12-18T09:04:33;38.93;;;23.27;;
13102;SDS011;52970;46.752;17.108;2022-12-18T09:06:58;32.67;;;21.53;;
13102;SDS011;52970;46.752;17.108;2022-12-18T09:09:23;37.13;;;22.37;;
13102;SDS011;52970;46.752;17.108;2022-12-18T09:11:49;32.50;;;20.17;;
13102;SDS011;52970;46.752;17.108;2022-12-18T09:14:14;38.70;;;22.27;;
13102;SDS011;52970;46.752;17.108;2022-12-18T09:16:40;41.57;;;24.83;;
13102;SDS011;52970;46.752;17.108;2022-12-18T09:19:05;37.17;;;22.17;;
13102;SDS011;52970;46.752;17.108;2022-12-18T09:21:31;36.57;;;22.10;;
13102;SDS011;52970;46.752;17.108;2022-12-18T09:23:57;38.40;;;21.50;;
13102;SDS011;52970;46.752;17.108;2022-12-18T09:26:23;36.83;;;21.30;;
13102;SDS011;52970;46.752;17.108;2022-12-18T09:28:49;33.10;;;21.37;;
13102;SDS011;52970;46.752;17.108;2022-12-18T09:31:14;35.90;;;21.73;;
13102;SDS011;52970;46.752;17.108;2022-12-18T09:33:40;33.00;;;20.87;;
13102;SDS011;52970;46.752;17.108;2022-12-18T09:36:06;29.30;;;18.07;;
13102;SDS011;52970;46.752;17.108;2022-12-18T09:38:33;31.53;;;19.63;;
13102;SDS011;52970;46.752;17.108;2022-12-18T09:41:05;30.10;;;18.47;;
13102;SDS011;52970;46.752;17.108;2022-12-18T09:43:52;33.23;;;19.30;;
13102;SDS011;52970;46.752;17.108;2022-12-18T09:46:20;27.97;;;18.40;;
13102;SDS011;52970;46.752;17.108;2022-12-18T09:48:50;31.37;;;19.53;;
13102;SDS011;52970;46.752;17.108;2022-12-18T09:51:28;27.00;;;18.20;;
13102;SDS011;52970;46.752;17.108;2022-12-18T09:53:56;32.67;;;19.50;;
13102;SDS011;52970;46.752;17.108;2022-12-18T09:56:23;29.43;;;18.23;;
13102;SDS011;52970;46.752;17.108;2022-12-18T09:58:57;31.73;;;17.93;;
13102;SDS011;52970;46.752;17.108;2022-12-18T10:01:23;25.87;;;16.93;;
13102;SDS011;52970;46.752;17.108;2022-12-18T10:03:49;28.97;;;16.97;;
13102;SDS011;52970;46.752;17.108;2022-12-18T10:08:51;27.13;;;17.00;;
13102;SDS011;52970;46.752;17.108;2022-12-18T10:16:52;27.00;;;16.40;;
13102;SDS011;52970;46.752;17.108;2022-12-18T10:19:28;25.03;;;16.17;;
13102;SDS011;52970;46.752;17.108;2022-12-18T10:27:24;23.07;;;16.33;;
13102;SDS011;52970;46.752;17.108;2022-12-18T10:29:50;28.23;;;17.50;;
13102;SDS011;52970;46.752;17.108;2022-12-18T10:32:17;28.57;;;17.87;;
13102;SDS011;52970;46.752;17.108;2022-12-18T10:34:49;26.97;;;17.93;;
13102;SDS011;52970;46.752;17.108;2022-12-18T10:37:20;25.47;;;17.70;;
13102;SDS011;52970;46.752;17.108;2022-12-18T10:40:07;24.00;;;16.27;;
13102;SDS011;52970;46.752;17.108;2022-12-18T10:42:31;25.00;;;16.63;;
13102;SDS011;52970;46.752;17.108;2022-12-18T10:45:16;26.43;;;16.70;;
13102;SDS011;52970;46.752;17.108;2022-12-18T10:47:48;25.23;;;16.63;;
13102;SDS011;52970;46.752;17.108;2022-12-18T10:50:28;23.67;;;16.67;;
13102;SDS011;52970;46.752;17.108;2022-12-18T10:52:55;25.80;;;16.27;;
13102;SDS011;52970;46.752;17.108;2022-12-18T10:55:22;23.80;;;15.13;;
13102;SDS011;52970;46.752;17.108;2022-12-18T10:57:47;26.33;;;17.87;;
13102;SDS011;52970;46.752;17.108;2022-12-18T11:02:44;24.77;;;17.00;;
13102;SDS011;52970;46.752;17.108;2022-12-18T11:07:54;22.20;;;15.10;;
13102;SDS011;52970;46.752;17.108;2022-12-18T11:10:20;26.40;;;16.40;;
13102;SDS011;52970;46.752;17.108;2022-12-18T11:12:46;27.37;;;15.80;;
13102;SDS011;52970;46.752;17.108;2022-12-18T11:15:30;26.43;;;18.57;;
13102;SDS011;52970;46.752;17.108;2022-12-18T11:17:55;25.23;;;16.83;;
13102;SDS011;52970;46.752;17.108;2022-12-18T11:20:31;24.00;;;15.70;;
13102;SDS011;52970;46.752;17.108;2022-12-18T11:22:58;26.00;;;16.80;;
13102;SDS011;52970;46.752;17.108;2022-12-18T11:25:24;22.53;;;16.47;;
13102;SDS011;52970;46.752;17.108;2022-12-18T11:27:54;26.43;;;17.33;;
13102;SDS011;52970;46.752;17.108;2022-12-18T11:32:46;24.80;;;16.40;;
13102;SDS011;52970;46.752;17.108;2022-12-18T11:35:21;24.73;;;16.60;;
13102;SDS011;52970;46.752;17.108;2022-12-18T11:37:54;23.07;;;16.07;;
13102;SDS011;52970;46.752;17.108;2022-12-18T11:40:26;25.33;;;15.80;;
13102;SDS011;52970;46.752;17.108;2022-12-18T11:43:35;22.77;;;15.53;;
13102;SDS011;52970;46.752;17.108;2022-12-18T11:45:43;24.27;;;16.07;;
13102;SDS011;52970;46.752;17.108;2022-12-18T11:53:01;25.40;;;17.47;;
13102;SDS011;52970;46.752;17.108;2022-12-18T12:00:24;24.47;;;16.47;;
13102;SDS011;52970;46.752;17.108;2022-12-18T12:08:07;24.13;;;15.53;;
13102;SDS011;52970;46.752;17.108;2022-12-18T12:10:42;26.80;;;16.40;;
13102;SDS011;52970;46.752;17.108;2022-12-18T12:23:53;22.07;;;14.63;;
13102;SDS011;52970;46.752;17.108;2022-12-18T12:26:28;24.13;;;15.90;;
13102;SDS011;52970;46.752;17.108;2022-12-18T12:29:05;23.20;;;15.90;;
13102;SDS011;52970;46.752;17.108;2022-12-18T12:39:01;23.57;;;15.37;;
13102;SDS011;52970;46.752;17.108;2022-12-18T12:41:30;22.30;;;15.02;;
13102;SDS011;52970;46.752;17.108;2022-12-18T12:44:16;21.37;;;14.70;;
13102;SDS011;52970;46.752;17.108;2022-12-18T12:46:42;19.70;;;13.80;;
13102;SDS011;52970;46.752;17.108;2022-12-18T12:49:15;19.60;;;14.10;;
13102;SDS011;52970;46.752;17.108;2022-12-18T12:51:46;24.07;;;15.57;;
13102;SDS011;52970;46.752;17.108;2022-12-18T12:54:17;26.83;;;16.53;;
13102;SDS011;52970;46.752;17.108;2022-12-18T12:59:12;38.30;;;19.90;;
13102;SDS011;52970;46.752;17.108;2022-12-18T13:01:41;38.17;;;20.70;;
13102;SDS011;52970;46.752;17.108;2022-12-18T13:09:29;21.23;;;14.13;;
13102;SDS011;52970;46.752;17.108;2022-12-18T13:11:55;28.83;;;17.67;;
13102;SDS011;52970;46.752;17.108;2022-12-18T13:14:44;27.23;;;17.57;;
13102;SDS011;52970;46.752;17.108;2022-12-18T13:19:44;20.17;;;14.17;;
13102;SDS011;52970;46.752;17.108;2022-12-18T13:22:22;25.43;;;15.37;;
13102;SDS011;52970;46.752;17.108;2022-12-18T13:24:48;24.07;;;15.13;;
13102;SDS011;52970;46.752;17.108;2022-12-18T13:29:57;20.53;;;15.17;;
13102;SDS011;52970;46.752;17.108;2022-12-18T13:32:23;23.67;;;15.03;;
13102;SDS011;52970;46.752;17.108;2022-12-18T13:35:03;17.43;;;13.03;;
13102;SDS011;52970;46.752;17.108;2022-12-18T13:37:42;19.97;;;13.63;;
13102;SDS011;52970;46.752;17.108;2022-12-18T13:48:24;23.93;;;16.17;;
13102;SDS011;52970;46.752;17.108;2022-12-18T13:51:05;24.60;;;16.67;;
13102;SDS011;52970;46.752;17.108;2022-12-18T13:53:53;24.67;;;16.07;;
13102;SDS011;52970;46.752;17.108;2022-12-18T13:56:17;27.27;;;17.80;;
13102;SDS011;52970;46.752;17.108;2022-12-18T13:58:43;27.50;;;17.07;;
13102;SDS011;52970;46.752;17.108;2022-12-18T14:01:23;27.97;;;17.43;;
13102;SDS011;52970;46.752;17.108;2022-12-18T14:03:51;29.00;;;18.27;;
13102;SDS011;52970;46.752;17.108;2022-12-18T14:06:33;27.33;;;18.20;;
13102;SDS011;52970;46.752;17.108;2022-12-18T14:08:59;27.60;;;18.03;;
13102;SDS011;52970;46.752;17.108;2022-12-18T14:11:24;28.23;;;18.30;;
13102;SDS011;52970;46.752;17.108;2022-12-18T14:13:50;28.77;;;18.93;;
13102;SDS011;52970;46.752;17.108;2022-12-18T14:16:15;25.53;;;18.87;;
13102;SDS011;52970;46.752;17.108;2022-12-18T14:18:43;25.40;;;16.57;;
13102;SDS011;52970;46.752;17.108;2022-12-18T14:21:16;26.87;;;18.43;;
13102;SDS011;52970;46.752;17.108;2022-12-18T14:23:42;25.70;;;17.57;;
13102;SDS011;52970;46.752;17.108;2022-12-18T14:28:45;27.33;;;17.87;;
13102;SDS011;52970;46.752;17.108;2022-12-18T14:31:17;34.60;;;21.87;;
13102;SDS011;52970;46.752;17.108;2022-12-18T14:33:43;33.77;;;23.57;;
13102;SDS011;52970;46.752;17.108;2022-12-18T14:36:13;34.70;;;21.63;;
13102;SDS011;52970;46.752;17.108;2022-12-18T14:38:39;40.07;;;22.87;;
13102;SDS011;52970;46.752;17.108;2022-12-18T14:41:06;30.07;;;19.97;;
13102;SDS011;52970;46.752;17.108;2022-12-18T14:43:35;30.73;;;20.50;;
13102;SDS011;52970;46.752;17.108;2022-12-18T14:46:01;27.60;;;18.60;;
13102;SDS011;52970;46.752;17.108;2022-12-18T14:48:33;31.97;;;17.87;;
13102;SDS011;52970;46.752;17.108;2022-12-18T14:51:03;25.37;;;17.00;;
13102;SDS011;52970;46.752;17.108;2022-12-18T14:53:39;28.27;;;18.10;;
13102;SDS011;52970;46.752;17.108;2022-12-18T14:56:24;26.37;;;16.40;;
13102;SDS011;52970;46.752;17.108;2022-12-18T14:58:51;27.63;;;16.70;;
13102;SDS011;52970;46.752;17.108;2022-12-18T15:01:25;23.07;;;16.13;;
13102;SDS011;52970;46.752;17.108;2022-12-18T15:03:52;24.63;;;15.20;;
13102;SDS011;52970;46.752;17.108;2022-12-18T15:06:21;24.53;;;16.10;;
13102;SDS011;52970;46.752;17.108;2022-12-18T15:08:48;22.10;;;15.47;;
13102;SDS011;52970;46.752;17.108;2022-12-18T15:11:34;22.57;;;13.80;;
13102;SDS011;52970;46.752;17.108;2022-12-18T15:14:21;21.63;;;13.73;;
13102;SDS011;52970;46.752;17.108;2022-12-18T15:16:49;23.20;;;14.63;;
13102;SDS011;52970;46.752;17.108;2022-12-18T15:19:15;21.63;;;13.90;;
13102;SDS011;52970;46.752;17.108;2022-12-18T15:21:43;23.00;;;14.17;;
13102;SDS011;52970;46.752;17.108;2022-12-18T15:24:16;24.10;;;15.37;;
13102;SDS011;52970;46.752;17.108;2022-12-18T15:26:43;24.40;;;15.63;;
13102;SDS011;52970;46.752;17.108;2022-12-18T15:29:17;22.13;;;15.13;;
13102;SDS011;52970;46.752;17.108;2022-12-18T15:31:44;24.00;;;15.73;;
13102;SDS011;52970;46.752;17.108;2022-12-18T15:34:12;23.07;;;15.80;;
13102;SDS011;52970;46.752;17.108;2022-12-18T15:36:37;27.30;;;14.27;;
13102;SDS011;52970;46.752;17.108;2022-12-18T15:39:03;24.67;;;15.80;;
13102;SDS011;52970;46.752;17.108;2022-12-18T15:41:30;22.53;;;14.87;;
13102;SDS011;52970;46.752;17.108;2022-12-18T15:43:56;20.87;;;14.70;;
13102;SDS011;52970;46.752;17.108;2022-12-18T15:46:22;25.60;;;15.40;;
13102;SDS011;52970;46.752;17.108;2022-12-18T15:48:49;24.63;;;16.73;;
13102;SDS011;52970;46.752;17.108;2022-12-18T15:51:19;26.33;;;16.13;;
13102;SDS011;52970;46.752;17.108;2022-12-18T15:53:45;27.63;;;17.70;;